createdAt,value
2022-10-29T00:04:38.712Z,18.70
2022-10-29T00:09:42.973Z,18.70
2022-10-29T00:14:45.993Z,18.60
2022-10-29T00:19:48.962Z,18.60
2022-10-29T00:24:53.231Z,18.50
2022-10-29T00:29:56.266Z,18.40
2022-10-29T00:34:59.194Z,18.40
2022-10-29T00:40:03.769Z,18.30
2022-10-29T00:45:07.750Z,18.30
2022-10-29T00:50:14.287Z,18.30
2022-10-29T01:30:03.770Z,17.60
2022-10-29T01:35:13.517Z,17.60
2022-10-29T01:40:23.902Z,17.50
2022-10-29T01:45:32.495Z,17.50
2022-10-29T01:50:39.715Z,17.40
2022-10-29T01:55:42.718Z,17.40
2022-10-29T02:00:56.208Z,17.30
2022-10-29T02:06:12.110Z,17.30
2022-10-29T02:11:22.250Z,17.20
2022-10-29T02:16:26.828Z,17.30
2022-10-29T02:21:31.098Z,17.20
2022-10-29T02:26:34.020Z,17.10
2022-10-29T02:31:37.179Z,17.00
2022-10-29T02:36:41.469Z,16.90
2022-10-29T02:41:44.379Z,16.80
2022-10-29T02:46:47.298Z,16.70
2022-10-29T02:51:52.344Z,16.70
2022-10-29T02:56:55.253Z,16.70
2022-10-29T03:01:58.353Z,16.60
2022-10-29T03:07:03.350Z,16.50
2022-10-29T03:12:06.663Z,16.50
2022-10-29T03:17:09.551Z,16.40
2022-10-29T03:22:13.782Z,16.30
2022-10-29T03:27:16.715Z,16.40
2022-10-29T03:32:19.652Z,16.30
2022-10-29T03:37:23.986Z,16.20
2022-10-29T03:42:26.961Z,16.20
2022-10-29T03:47:30.214Z,16.20
2022-10-29T03:52:34.672Z,16.20
2022-10-29T03:57:37.610Z,16.20
2022-10-29T04:02:40.699Z,16.10
2022-10-29T04:07:45.081Z,16.00
2022-10-29T04:12:48.254Z,16.00
2022-10-29T04:17:51.950Z,15.90
2022-10-29T04:24:28.957Z,15.90
2022-10-29T04:28:42.541Z,15.90
2022-10-29T04:33:42.112Z,15.80
2022-10-29T04:38:46.444Z,15.80
2022-10-29T04:43:49.359Z,15.70
2022-10-29T04:48:52.379Z,15.60
2022-10-29T04:53:56.714Z,15.60
2022-10-29T04:58:59.710Z,15.50
2022-10-29T05:04:02.674Z,15.50
2022-10-29T05:09:07.075Z,15.50
2022-10-29T05:14:10.015Z,15.50
2022-10-29T05:19:12.957Z,15.50
2022-10-29T05:24:17.378Z,15.50
2022-10-29T05:29:20.289Z,15.50
2022-10-29T05:34:23.241Z,15.60
2022-10-29T05:39:27.533Z,15.60
2022-10-29T05:44:30.465Z,15.60
2022-10-29T05:49:33.402Z,15.70
2022-10-29T05:54:37.704Z,15.70
2022-10-29T05:59:40.620Z,15.70
2022-10-29T06:04:43.514Z,15.70
2022-10-29T06:09:47.769Z,15.70
2022-10-29T06:14:50.712Z,15.70
2022-10-29T06:19:53.628Z,15.60
2022-10-29T06:24:57.902Z,15.60
2022-10-29T06:30:00.835Z,15.60
2022-10-29T06:35:03.778Z,15.70
2022-10-29T06:40:09.375Z,15.70
2022-10-29T06:45:13.206Z,15.70
2022-10-29T06:50:16.290Z,15.70
2022-10-29T06:55:20.581Z,15.70
2022-10-29T07:00:23.500Z,15.80
2022-10-29T07:05:27.318Z,15.70
2022-10-29T07:10:33.061Z,15.80
2022-10-29T07:15:36.019Z,15.80
2022-10-29T07:20:40.786Z,15.80
2022-10-29T07:25:45.309Z,15.90
2022-10-29T07:30:48.644Z,15.90
2022-10-29T07:35:51.573Z,15.90
2022-10-29T07:40:55.862Z,16.00
2022-10-29T07:45:58.825Z,16.00
2022-10-29T07:51:02.879Z,16.00
2022-10-29T07:56:07.673Z,16.00
2022-10-29T08:01:10.728Z,16.10
2022-10-29T08:06:13.784Z,16.20
2022-10-29T08:11:18.077Z,16.20
2022-10-29T08:16:20.993Z,16.30
2022-10-29T08:21:24.049Z,16.40
2022-10-29T08:26:28.342Z,16.40
2022-10-29T08:31:31.354Z,16.50
2022-10-29T08:36:34.340Z,16.60
2022-10-29T08:41:51.257Z,16.70
2022-10-29T08:46:57.363Z,16.70
2022-10-29T08:52:06.106Z,16.80
2022-10-29T08:57:16.439Z,16.90
2022-10-29T09:02:19.695Z,17.00
2022-10-29T09:07:47.087Z,17.00
2022-10-29T09:13:05.723Z,17.00
2022-10-29T09:18:20.399Z,17.20
2022-10-29T09:23:30.395Z,17.20
2022-10-29T09:28:45.281Z,17.30
2022-10-29T09:33:50.896Z,17.40
2022-10-29T09:38:57.991Z,17.50
2022-10-29T09:44:07.709Z,17.60
2022-10-29T09:49:23.705Z,17.80
2022-10-29T09:54:28.538Z,17.90
2022-10-29T09:59:36.758Z,18.10
2022-10-29T10:04:44.999Z,18.30
2022-10-29T10:09:56.376Z,18.40
2022-10-29T10:15:18.097Z,18.50
2022-10-29T10:20:29.384Z,18.60
2022-10-29T10:25:34.913Z,18.70
2022-10-29T10:30:39.280Z,18.90
2022-10-29T10:35:42.720Z,18.90
2022-10-29T10:40:48.333Z,19.10
2022-10-29T10:45:58.125Z,19.20
2022-10-29T10:51:24.726Z,19.30
2022-10-29T10:56:27.760Z,19.40
2022-10-29T11:01:38.421Z,19.50
2022-10-29T11:06:43.113Z,19.60
2022-10-29T11:11:52.775Z,19.70
2022-10-29T11:17:02.896Z,19.80
2022-10-29T11:22:17.843Z,19.80
2022-10-29T11:27:32.809Z,20.00
2022-10-29T11:32:47.598Z,20.00
2022-10-29T11:37:57.514Z,20.20
2022-10-29T11:43:05.819Z,20.30
2022-10-29T11:48:21.991Z,20.50
2022-10-29T11:53:42.134Z,20.60
2022-10-29T11:58:52.054Z,20.80
2022-10-29T12:09:46.325Z,21.10
2022-10-29T12:14:55.734Z,21.30
2022-10-29T12:20:07.405Z,21.40
2022-10-29T12:25:22.621Z,21.50
2022-10-29T12:30:26.081Z,21.60
2022-10-29T12:35:34.720Z,21.60
2022-10-29T12:40:42.684Z,21.60
2022-10-29T12:46:18.498Z,21.70
2022-10-29T12:51:25.613Z,21.70
2022-10-29T12:56:36.226Z,21.70
2022-10-29T13:02:10.701Z,21.80
2022-10-29T13:07:24.760Z,21.80
2022-10-29T13:12:57.902Z,21.80
2022-10-29T13:18:04.795Z,21.80
2022-10-29T13:23:34.860Z,21.80
2022-10-29T13:28:53.514Z,21.90
2022-10-29T13:33:56.590Z,21.90
2022-10-29T13:39:07.420Z,22.00
2022-10-29T13:44:12.983Z,22.00
2022-10-29T13:49:22.937Z,22.00
2022-10-29T13:54:32.069Z,22.10
2022-10-29T13:59:42.789Z,22.10
2022-10-29T14:04:51.861Z,22.10
2022-10-29T14:09:59.086Z,22.10
2022-10-29T14:15:06.950Z,22.10
2022-10-29T14:20:22.484Z,22.10
2022-10-29T14:25:36.784Z,22.10
2022-10-29T14:30:39.872Z,22.10
2022-10-29T14:35:43.099Z,22.00
2022-10-29T14:40:47.932Z,22.00
2022-10-29T14:45:51.604Z,21.90
2022-10-29T14:50:56.657Z,21.90
2022-10-29T14:56:04.490Z,21.80
2022-10-29T15:01:13.476Z,21.80
2022-10-29T15:06:19.088Z,21.70
2022-10-29T15:11:42.236Z,21.60
2022-10-29T15:16:48.391Z,21.60
2022-10-29T15:21:51.582Z,21.60
2022-10-29T15:26:58.587Z,21.60
2022-10-29T15:32:01.620Z,21.50
2022-10-29T15:37:25.696Z,21.50
2022-10-29T15:42:33.582Z,21.40
2022-10-29T15:47:38.462Z,21.40
2022-10-29T15:52:43.689Z,21.30
2022-10-29T15:57:51.517Z,21.20
2022-10-29T16:02:58.622Z,21.20
2022-10-29T16:08:04.509Z,21.00
2022-10-29T16:13:11.790Z,21.00
2022-10-29T16:18:15.159Z,20.90
2022-10-29T16:23:18.211Z,20.80
2022-10-29T16:28:22.518Z,20.60
2022-10-29T16:33:25.543Z,20.60
2022-10-29T16:38:28.502Z,20.50
2022-10-29T16:43:32.837Z,20.40
2022-10-29T16:48:36.184Z,20.30
2022-10-29T16:53:39.188Z,20.20
2022-10-29T16:58:43.535Z,20.10
2022-10-29T17:03:46.480Z,19.90
2022-10-29T17:08:49.479Z,19.80
2022-10-29T17:13:54.134Z,19.70
2022-10-29T17:18:58.170Z,19.60
2022-10-29T17:24:06.745Z,19.50
2022-10-29T17:29:12.783Z,19.40
2022-10-29T17:34:15.700Z,19.40
2022-10-29T17:39:18.670Z,19.20
2022-10-29T17:44:23.139Z,19.10
2022-10-29T17:49:26.731Z,19.00
2022-10-29T17:54:29.729Z,18.90
2022-10-29T17:59:34.028Z,18.90
2022-10-29T18:04:36.959Z,18.80
2022-10-29T18:09:40.027Z,18.70
2022-10-29T18:14:44.463Z,18.70
2022-10-29T18:19:47.805Z,18.70
2022-10-29T18:24:50.730Z,18.60
2022-10-29T18:29:55.005Z,18.50
2022-10-29T18:34:57.961Z,18.40
2022-10-29T18:40:00.930Z,18.20
2022-10-29T18:45:06.348Z,18.10
2022-10-29T18:50:09.591Z,18.00
2022-10-29T18:55:12.595Z,18.00
2022-10-29T19:00:18.309Z,17.90
2022-10-29T19:05:21.274Z,17.90
2022-10-29T19:10:24.197Z,17.80
2022-10-29T19:15:28.488Z,17.80
2022-10-29T19:20:33.776Z,17.70
2022-10-29T19:25:40.870Z,17.70
2022-10-29T19:30:45.323Z,17.70
2022-10-29T19:35:48.260Z,17.60
2022-10-29T19:40:51.248Z,17.60
2022-10-29T19:45:55.583Z,17.50
2022-10-29T19:50:58.573Z,17.40
2022-10-29T19:56:01.575Z,17.30
2022-10-29T20:01:07.591Z,17.30
2022-10-29T20:06:10.868Z,17.20
2022-10-29T20:11:13.918Z,17.20
2022-10-29T20:16:19.961Z,17.20
2022-10-29T20:21:22.884Z,17.20
2022-10-29T20:26:25.820Z,17.10
2022-10-29T20:31:33.753Z,17.20
2022-10-29T20:36:39.045Z,17.10
2022-10-29T20:41:42.136Z,17.10
2022-10-29T20:46:46.440Z,17.10
2022-10-29T20:51:49.399Z,17.10
2022-10-29T20:56:53.954Z,17.00
2022-10-29T21:01:58.815Z,17.00
2022-10-29T21:07:01.847Z,17.00
2022-10-29T21:12:05.312Z,16.90
2022-10-29T21:17:09.595Z,16.80
2022-10-29T21:22:14.833Z,16.80
2022-10-29T21:27:17.860Z,16.70
2022-10-29T21:32:22.235Z,16.70
2022-10-29T21:37:25.253Z,16.60
2022-10-29T21:42:28.196Z,16.50
2022-10-29T21:47:32.523Z,16.50
2022-10-29T21:52:35.526Z,16.50
2022-10-29T21:57:38.426Z,16.50
2022-10-29T22:02:42.759Z,16.40
2022-10-29T22:07:45.818Z,16.40
2022-10-29T22:12:48.803Z,16.40
2022-10-29T22:17:53.115Z,16.30
2022-10-29T22:22:56.311Z,16.30
2022-10-29T22:27:59.996Z,16.30
2022-10-29T22:33:04.696Z,16.20
2022-10-29T22:38:07.667Z,16.20
2022-10-29T22:43:11.824Z,16.20
2022-10-29T22:48:16.086Z,16.20
2022-10-29T22:53:19.026Z,16.20
2022-10-29T22:58:21.983Z,16.10
2022-10-29T23:03:26.279Z,16.10
2022-10-29T23:08:29.771Z,16.10
2022-10-29T23:13:32.731Z,16.10
2022-10-29T23:18:37.102Z,16.00
2022-10-29T23:23:40.071Z,16.00
2022-10-29T23:28:43.900Z,16.00
2022-10-29T23:33:49.957Z,15.90
2022-10-29T23:38:56.247Z,15.90
2022-10-29T23:43:59.769Z,15.90
2022-10-29T23:49:04.096Z,15.80
2022-10-29T23:54:07.090Z,15.80
2022-10-29T23:59:10.009Z,15.80
